<?xml version="1.0" encoding="UTF-8" standalone="no" ?>
<gpx xmlns="http://www.topografix.com/GPX/1/1" xmlns:xsi="http://www.w3.org/2001/XMLSchema-instance" xsi:schemaLocation="http://www.topografix.com/GPX/1/1 http://www.topografix.com/GPX/1/1/gpx.xsd" version="1.1" creator="VisuGPX - https://www.visugpx.com">
  <metadata>
    <name>Trail de l'Aigle </name>
    <desc><![CDATA[trail de l'aigle 2016]]></desc>
  </metadata>
  <trk>
    <name><![CDATA[OR-2823258--Manigod:Trail de l'Aigle (26km) 2013]]></name>
    <trkseg>
      <trkpt lat="45.87801" lon="6.40397">
        <ele>1475</ele>
        <time>2016-08-14T09:24:07Z</time>
      </trkpt>
      <trkpt lat="45.87741" lon="6.40345">
        <ele>1471</ele>
        <time>2016-08-14T09:26:07Z</time>
      </trkpt>
      <trkpt lat="45.87743" lon="6.40306">
        <ele>1475</ele>
        <time>2016-08-14T09:28:07Z</time>
      </trkpt>
      <trkpt lat="45.87728" lon="6.40269">
        <ele>1475</ele>
        <time>2016-08-14T09:30:07Z</time>
      </trkpt>
      <trkpt lat="45.87735" lon="6.40259">
        <ele>1477</ele>
        <time>2016-08-14T09:32:07Z</time>
      </trkpt>
      <trkpt lat="45.87756" lon="6.40278">
        <ele>1480</ele>
        <time>2016-08-14T09:34:07Z</time>
      </trkpt>
      <trkpt lat="45.87803" lon="6.40299">
        <ele>1488</ele>
        <time>2016-08-14T09:36:07Z</time>
      </trkpt>
      <trkpt lat="45.87838" lon="6.40299">
        <ele>1496</ele>
        <time>2016-08-14T09:38:07Z</time>
      </trkpt>
      <trkpt lat="45.87893" lon="6.40326">
        <ele>1501</ele>
        <time>2016-08-14T09:40:07Z</time>
      </trkpt>
      <trkpt lat="45.87943" lon="6.40329">
        <ele>1513</ele>
        <time>2016-08-14T09:42:07Z</time>
      </trkpt>
      <trkpt lat="45.87974" lon="6.4036">
        <ele>1519</ele>
        <time>2016-08-14T09:44:07Z</time>
      </trkpt>
      <trkpt lat="45.8802" lon="6.40428">
        <ele>1524</ele>
        <time>2016-08-14T09:46:07Z</time>
      </trkpt>
      <trkpt lat="45.88063" lon="6.40457">
        <ele>1529</ele>
        <time>2016-08-14T09:48:07Z</time>
      </trkpt>
      <trkpt lat="45.88108" lon="6.40462">
        <ele>1536</ele>
        <time>2016-08-14T09:50:07Z</time>
      </trkpt>
      <trkpt lat="45.88152" lon="6.4049">
        <ele>1534</ele>
        <time>2016-08-14T09:52:07Z</time>
      </trkpt>
      <trkpt lat="45.88246" lon="6.40513">
        <ele>1540</ele>
        <time>2016-08-14T09:54:07Z</time>
      </trkpt>
      <trkpt lat="45.88314" lon="6.40514">
        <ele>1540</ele>
        <time>2016-08-14T09:56:07Z</time>
      </trkpt>
      <trkpt lat="45.8838" lon="6.40503">
        <ele>1527</ele>
        <time>2016-08-14T09:58:07Z</time>
      </trkpt>
      <trkpt lat="45.88529" lon="6.40443">
        <ele>1516</ele>
        <time>2016-08-14T10:00:07Z</time>
      </trkpt>
      <trkpt lat="45.88646" lon="6.40454">
        <ele>1515</ele>
        <time>2016-08-14T10:02:07Z</time>
      </trkpt>
      <trkpt lat="45.88681" lon="6.40443">
        <ele>1517</ele>
        <time>2016-08-14T10:04:07Z</time>
      </trkpt>
      <trkpt lat="45.88739" lon="6.40391">
        <ele>1524</ele>
        <time>2016-08-14T10:06:07Z</time>
      </trkpt>
      <trkpt lat="45.88759" lon="6.40389">
        <ele>1524</ele>
        <time>2016-08-14T10:08:07Z</time>
      </trkpt>
      <trkpt lat="45.88765" lon="6.404">
        <ele>1523</ele>
        <time>2016-08-14T10:10:07Z</time>
      </trkpt>
      <trkpt lat="45.8877" lon="6.40452">
        <ele>1522</ele>
        <time>2016-08-14T10:12:07Z</time>
      </trkpt>
      <trkpt lat="45.88791" lon="6.405">
        <ele>1523</ele>
        <time>2016-08-14T10:14:07Z</time>
      </trkpt>
      <trkpt lat="45.88784" lon="6.4057">
        <ele>1527</ele>
        <time>2016-08-14T10:16:07Z</time>
      </trkpt>
      <trkpt lat="45.88799" lon="6.40645">
        <ele>1533</ele>
        <time>2016-08-14T10:18:07Z</time>
      </trkpt>
      <trkpt lat="45.88806" lon="6.40644">
        <ele>1534</ele>
        <time>2016-08-14T10:20:07Z</time>
      </trkpt>
      <trkpt lat="45.88838" lon="6.40599">
        <ele>1535</ele>
        <time>2016-08-14T10:22:07Z</time>
      </trkpt>
      <trkpt lat="45.88851" lon="6.40597">
        <ele>1537</ele>
        <time>2016-08-14T10:24:07Z</time>
      </trkpt>
      <trkpt lat="45.88885" lon="6.40624">
        <ele>1542</ele>
        <time>2016-08-14T10:26:07Z</time>
      </trkpt>
      <trkpt lat="45.89055" lon="6.40671">
        <ele>1566</ele>
        <time>2016-08-14T10:28:07Z</time>
      </trkpt>
      <trkpt lat="45.89119" lon="6.40662">
        <ele>1578</ele>
        <time>2016-08-14T10:30:07Z</time>
      </trkpt>
      <trkpt lat="45.89169" lon="6.40569">
        <ele>1591</ele>
        <time>2016-08-14T10:32:07Z</time>
      </trkpt>
      <trkpt lat="45.89178" lon="6.4057">
        <ele>1594</ele>
        <time>2016-08-14T10:34:07Z</time>
      </trkpt>
      <trkpt lat="45.89196" lon="6.40661">
        <ele>1596</ele>
        <time>2016-08-14T10:36:07Z</time>
      </trkpt>
      <trkpt lat="45.89207" lon="6.40686">
        <ele>1597</ele>
        <time>2016-08-14T10:38:07Z</time>
      </trkpt>
      <trkpt lat="45.89251" lon="6.40727">
        <ele>1607</ele>
        <time>2016-08-14T10:40:07Z</time>
      </trkpt>
      <trkpt lat="45.89259" lon="6.4072">
        <ele>1610</ele>
        <time>2016-08-14T10:42:07Z</time>
      </trkpt>
      <trkpt lat="45.89254" lon="6.40669">
        <ele>1613</ele>
        <time>2016-08-14T10:44:07Z</time>
      </trkpt>
      <trkpt lat="45.89263" lon="6.40601">
        <ele>1617</ele>
        <time>2016-08-14T10:46:07Z</time>
      </trkpt>
      <trkpt lat="45.89271" lon="6.4058">
        <ele>1618</ele>
        <time>2016-08-14T10:48:07Z</time>
      </trkpt>
      <trkpt lat="45.89291" lon="6.40555">
        <ele>1617</ele>
        <time>2016-08-14T10:50:07Z</time>
      </trkpt>
      <trkpt lat="45.89351" lon="6.40517">
        <ele>1615</ele>
        <time>2016-08-14T10:52:07Z</time>
      </trkpt>
      <trkpt lat="45.89363" lon="6.40499">
        <ele>1611</ele>
        <time>2016-08-14T10:54:07Z</time>
      </trkpt>
      <trkpt lat="45.89368" lon="6.40479">
        <ele>1610</ele>
        <time>2016-08-14T10:56:07Z</time>
      </trkpt>
      <trkpt lat="45.89366" lon="6.40425">
        <ele>1608</ele>
        <time>2016-08-14T10:58:07Z</time>
      </trkpt>
      <trkpt lat="45.89383" lon="6.40355">
        <ele>1610</ele>
        <time>2016-08-14T11:00:07Z</time>
      </trkpt>
      <trkpt lat="45.8936" lon="6.40267">
        <ele>1612</ele>
        <time>2016-08-14T11:02:07Z</time>
      </trkpt>
      <trkpt lat="45.89309" lon="6.4011">
        <ele>1616</ele>
        <time>2016-08-14T11:04:07Z</time>
      </trkpt>
      <trkpt lat="45.89294" lon="6.4009">
        <ele>1617</ele>
        <time>2016-08-14T11:06:07Z</time>
      </trkpt>
      <trkpt lat="45.89289" lon="6.4003">
        <ele>1619</ele>
        <time>2016-08-14T11:08:07Z</time>
      </trkpt>
      <trkpt lat="45.89265" lon="6.39982">
        <ele>1624</ele>
        <time>2016-08-14T11:10:07Z</time>
      </trkpt>
      <trkpt lat="45.89235" lon="6.39937">
        <ele>1627</ele>
        <time>2016-08-14T11:12:07Z</time>
      </trkpt>
      <trkpt lat="45.89231" lon="6.39922">
        <ele>1627</ele>
        <time>2016-08-14T11:14:07Z</time>
      </trkpt>
      <trkpt lat="45.89246" lon="6.39827">
        <ele>1624</ele>
        <time>2016-08-14T11:16:07Z</time>
      </trkpt>
      <trkpt lat="45.89251" lon="6.39721">
        <ele>1615</ele>
        <time>2016-08-14T11:18:07Z</time>
      </trkpt>
      <trkpt lat="45.89246" lon="6.39617">
        <ele>1614</ele>
        <time>2016-08-14T11:20:07Z</time>
      </trkpt>
      <trkpt lat="45.89239" lon="6.39596">
        <ele>1615</ele>
        <time>2016-08-14T11:22:07Z</time>
      </trkpt>
      <trkpt lat="45.89212" lon="6.39553">
        <ele>1617</ele>
        <time>2016-08-14T11:24:07Z</time>
      </trkpt>
      <trkpt lat="45.89191" lon="6.39502">
        <ele>1620</ele>
        <time>2016-08-14T11:26:07Z</time>
      </trkpt>
      <trkpt lat="45.8918" lon="6.39417">
        <ele>1623</ele>
        <time>2016-08-14T11:28:07Z</time>
      </trkpt>
      <trkpt lat="45.89186" lon="6.39355">
        <ele>1623</ele>
        <time>2016-08-14T11:30:07Z</time>
      </trkpt>
      <trkpt lat="45.89159" lon="6.39198">
        <ele>1615</ele>
        <time>2016-08-14T11:32:07Z</time>
      </trkpt>
      <trkpt lat="45.89114" lon="6.39119">
        <ele>1607</ele>
        <time>2016-08-14T11:34:07Z</time>
      </trkpt>
      <trkpt lat="45.891" lon="6.39082">
        <ele>1605</ele>
        <time>2016-08-14T11:36:07Z</time>
      </trkpt>
      <trkpt lat="45.89078" lon="6.39062">
        <ele>1602</ele>
        <time>2016-08-14T11:38:07Z</time>
      </trkpt>
      <trkpt lat="45.89048" lon="6.3898">
        <ele>1594</ele>
        <time>2016-08-14T11:40:07Z</time>
      </trkpt>
      <trkpt lat="45.89055" lon="6.38899">
        <ele>1586</ele>
        <time>2016-08-14T11:42:07Z</time>
      </trkpt>
      <trkpt lat="45.89035" lon="6.38841">
        <ele>1577</ele>
        <time>2016-08-14T11:44:07Z</time>
      </trkpt>
      <trkpt lat="45.89015" lon="6.38825">
        <ele>1577</ele>
        <time>2016-08-14T11:46:07Z</time>
      </trkpt>
      <trkpt lat="45.89015" lon="6.38816">
        <ele>1577</ele>
        <time>2016-08-14T11:48:07Z</time>
      </trkpt>
      <trkpt lat="45.89006" lon="6.38816">
        <ele>1578</ele>
        <time>2016-08-14T11:50:07Z</time>
      </trkpt>
      <trkpt lat="45.88977" lon="6.38835">
        <ele>1577</ele>
        <time>2016-08-14T11:52:07Z</time>
      </trkpt>
      <trkpt lat="45.88951" lon="6.38877">
        <ele>1581</ele>
        <time>2016-08-14T11:54:07Z</time>
      </trkpt>
      <trkpt lat="45.88947" lon="6.38938">
        <ele>1588</ele>
        <time>2016-08-14T11:56:07Z</time>
      </trkpt>
      <trkpt lat="45.88937" lon="6.38972">
        <ele>1589</ele>
        <time>2016-08-14T11:58:07Z</time>
      </trkpt>
      <trkpt lat="45.88919" lon="6.39006">
        <ele>1590</ele>
        <time>2016-08-14T12:00:07Z</time>
      </trkpt>
      <trkpt lat="45.88908" lon="6.39016">
        <ele>1591</ele>
        <time>2016-08-14T12:02:07Z</time>
      </trkpt>
      <trkpt lat="45.88883" lon="6.39016">
        <ele>1592</ele>
        <time>2016-08-14T12:04:07Z</time>
      </trkpt>
      <trkpt lat="45.88758" lon="6.38911">
        <ele>1590</ele>
        <time>2016-08-14T12:06:07Z</time>
      </trkpt>
      <trkpt lat="45.88721" lon="6.38894">
        <ele>1594</ele>
        <time>2016-08-14T12:08:07Z</time>
      </trkpt>
      <trkpt lat="45.88707" lon="6.38869">
        <ele>1595</ele>
        <time>2016-08-14T12:10:07Z</time>
      </trkpt>
      <trkpt lat="45.88688" lon="6.38801">
        <ele>1596</ele>
        <time>2016-08-14T12:12:07Z</time>
      </trkpt>
      <trkpt lat="45.88656" lon="6.38739">
        <ele>1600</ele>
        <time>2016-08-14T12:14:07Z</time>
      </trkpt>
      <trkpt lat="45.88652" lon="6.38697">
        <ele>1603</ele>
        <time>2016-08-14T12:16:07Z</time>
      </trkpt>
      <trkpt lat="45.88678" lon="6.38663">
        <ele>1604</ele>
        <time>2016-08-14T12:18:07Z</time>
      </trkpt>
      <trkpt lat="45.88671" lon="6.38632">
        <ele>1609</ele>
        <time>2016-08-14T12:20:07Z</time>
      </trkpt>
      <trkpt lat="45.88634" lon="6.38548">
        <ele>1619</ele>
        <time>2016-08-14T12:22:07Z</time>
      </trkpt>
      <trkpt lat="45.88618" lon="6.38459">
        <ele>1625</ele>
        <time>2016-08-14T12:24:07Z</time>
      </trkpt>
      <trkpt lat="45.88603" lon="6.38439">
        <ele>1626</ele>
        <time>2016-08-14T12:26:07Z</time>
      </trkpt>
      <trkpt lat="45.88586" lon="6.3839">
        <ele>1632</ele>
        <time>2016-08-14T12:28:07Z</time>
      </trkpt>
      <trkpt lat="45.88575" lon="6.38234">
        <ele>1637</ele>
        <time>2016-08-14T12:30:07Z</time>
      </trkpt>
      <trkpt lat="45.88564" lon="6.38197">
        <ele>1637</ele>
        <time>2016-08-14T12:32:07Z</time>
      </trkpt>
      <trkpt lat="45.88556" lon="6.38133">
        <ele>1638</ele>
        <time>2016-08-14T12:34:07Z</time>
      </trkpt>
      <trkpt lat="45.88522" lon="6.38069">
        <ele>1653</ele>
        <time>2016-08-14T12:36:07Z</time>
      </trkpt>
      <trkpt lat="45.88515" lon="6.38034">
        <ele>1662</ele>
        <time>2016-08-14T12:38:07Z</time>
      </trkpt>
      <trkpt lat="45.88443" lon="6.38043">
        <ele>1680</ele>
        <time>2016-08-14T12:40:07Z</time>
      </trkpt>
      <trkpt lat="45.88426" lon="6.38052">
        <ele>1682</ele>
        <time>2016-08-14T12:42:07Z</time>
      </trkpt>
      <trkpt lat="45.88406" lon="6.3805">
        <ele>1687</ele>
        <time>2016-08-14T12:44:07Z</time>
      </trkpt>
      <trkpt lat="45.88387" lon="6.38003">
        <ele>1691</ele>
        <time>2016-08-14T12:46:07Z</time>
      </trkpt>
      <trkpt lat="45.88395" lon="6.37989">
        <ele>1690</ele>
        <time>2016-08-14T12:48:07Z</time>
      </trkpt>
      <trkpt lat="45.88445" lon="6.37962">
        <ele>1686</ele>
        <time>2016-08-14T12:50:07Z</time>
      </trkpt>
      <trkpt lat="45.88472" lon="6.37919">
        <ele>1687</ele>
        <time>2016-08-14T12:52:07Z</time>
      </trkpt>
      <trkpt lat="45.88508" lon="6.37808">
        <ele>1684</ele>
        <time>2016-08-14T12:54:07Z</time>
      </trkpt>
      <trkpt lat="45.88508" lon="6.37787">
        <ele>1683</ele>
        <time>2016-08-14T12:56:07Z</time>
      </trkpt>
      <trkpt lat="45.88532" lon="6.37711">
        <ele>1670</ele>
        <time>2016-08-14T12:58:07Z</time>
      </trkpt>
      <trkpt lat="45.88525" lon="6.37634">
        <ele>1676</ele>
        <time>2016-08-14T13:00:07Z</time>
      </trkpt>
      <trkpt lat="45.88506" lon="6.37595">
        <ele>1686</ele>
        <time>2016-08-14T13:02:07Z</time>
      </trkpt>
      <trkpt lat="45.8849" lon="6.37511">
        <ele>1684</ele>
        <time>2016-08-14T13:04:07Z</time>
      </trkpt>
      <trkpt lat="45.88482" lon="6.37497">
        <ele>1682</ele>
        <time>2016-08-14T13:06:07Z</time>
      </trkpt>
      <trkpt lat="45.8841" lon="6.37444">
        <ele>1669</ele>
        <time>2016-08-14T13:08:07Z</time>
      </trkpt>
      <trkpt lat="45.88368" lon="6.37373">
        <ele>1648</ele>
        <time>2016-08-14T13:10:07Z</time>
      </trkpt>
      <trkpt lat="45.88352" lon="6.37355">
        <ele>1645</ele>
        <time>2016-08-14T13:12:07Z</time>
      </trkpt>
      <trkpt lat="45.88306" lon="6.37272">
        <ele>1624</ele>
        <time>2016-08-14T13:14:07Z</time>
      </trkpt>
      <trkpt lat="45.88302" lon="6.37255">
        <ele>1621</ele>
        <time>2016-08-14T13:16:07Z</time>
      </trkpt>
      <trkpt lat="45.88286" lon="6.37229">
        <ele>1613</ele>
        <time>2016-08-14T13:18:07Z</time>
      </trkpt>
      <trkpt lat="45.8827" lon="6.37164">
        <ele>1603</ele>
        <time>2016-08-14T13:20:07Z</time>
      </trkpt>
      <trkpt lat="45.88246" lon="6.3713">
        <ele>1599</ele>
        <time>2016-08-14T13:22:07Z</time>
      </trkpt>
      <trkpt lat="45.88231" lon="6.3706">
        <ele>1581</ele>
        <time>2016-08-14T13:24:07Z</time>
      </trkpt>
      <trkpt lat="45.88237" lon="6.37027">
        <ele>1572</ele>
        <time>2016-08-14T13:26:07Z</time>
      </trkpt>
      <trkpt lat="45.88235" lon="6.36986">
        <ele>1559</ele>
        <time>2016-08-14T13:28:07Z</time>
      </trkpt>
      <trkpt lat="45.88224" lon="6.36972">
        <ele>1553</ele>
        <time>2016-08-14T13:30:07Z</time>
      </trkpt>
      <trkpt lat="45.88143" lon="6.3704">
        <ele>1546</ele>
        <time>2016-08-14T13:32:07Z</time>
      </trkpt>
      <trkpt lat="45.88116" lon="6.37074">
        <ele>1541</ele>
        <time>2016-08-14T13:34:07Z</time>
      </trkpt>
      <trkpt lat="45.8809" lon="6.37093">
        <ele>1532</ele>
        <time>2016-08-14T13:36:07Z</time>
      </trkpt>
      <trkpt lat="45.88087" lon="6.37081">
        <ele>1529</ele>
        <time>2016-08-14T13:38:07Z</time>
      </trkpt>
      <trkpt lat="45.88079" lon="6.37085">
        <ele>1526</ele>
        <time>2016-08-14T13:40:07Z</time>
      </trkpt>
      <trkpt lat="45.88069" lon="6.37106">
        <ele>1525</ele>
        <time>2016-08-14T13:42:07Z</time>
      </trkpt>
      <trkpt lat="45.88063" lon="6.37101">
        <ele>1522</ele>
        <time>2016-08-14T13:44:07Z</time>
      </trkpt>
      <trkpt lat="45.88051" lon="6.37056">
        <ele>1508</ele>
        <time>2016-08-14T13:46:07Z</time>
      </trkpt>
      <trkpt lat="45.88053" lon="6.37041">
        <ele>1504</ele>
        <time>2016-08-14T13:48:07Z</time>
      </trkpt>
      <trkpt lat="45.88021" lon="6.3705">
        <ele>1495</ele>
        <time>2016-08-14T13:50:07Z</time>
      </trkpt>
      <trkpt lat="45.8802" lon="6.37009">
        <ele>1483</ele>
        <time>2016-08-14T13:52:07Z</time>
      </trkpt>
      <trkpt lat="45.87999" lon="6.37072">
        <ele>1492</ele>
        <time>2016-08-14T13:54:07Z</time>
      </trkpt>
      <trkpt lat="45.87894" lon="6.37003">
        <ele>1493</ele>
        <time>2016-08-14T13:56:07Z</time>
      </trkpt>
      <trkpt lat="45.8787" lon="6.36977">
        <ele>1490</ele>
        <time>2016-08-14T13:58:07Z</time>
      </trkpt>
      <trkpt lat="45.8784" lon="6.36963">
        <ele>1492</ele>
        <time>2016-08-14T14:00:07Z</time>
      </trkpt>
      <trkpt lat="45.87815" lon="6.36968">
        <ele>1499</ele>
        <time>2016-08-14T14:02:07Z</time>
      </trkpt>
      <trkpt lat="45.87763" lon="6.36916">
        <ele>1489</ele>
        <time>2016-08-14T14:04:07Z</time>
      </trkpt>
      <trkpt lat="45.87725" lon="6.36914">
        <ele>1489</ele>
        <time>2016-08-14T14:06:07Z</time>
      </trkpt>
      <trkpt lat="45.87684" lon="6.36897">
        <ele>1481</ele>
        <time>2016-08-14T14:08:07Z</time>
      </trkpt>
      <trkpt lat="45.8767" lon="6.36903">
        <ele>1482</ele>
        <time>2016-08-14T14:10:07Z</time>
      </trkpt>
      <trkpt lat="45.87663" lon="6.36915">
        <ele>1485</ele>
        <time>2016-08-14T14:12:07Z</time>
      </trkpt>
      <trkpt lat="45.8765" lon="6.36916">
        <ele>1485</ele>
        <time>2016-08-14T14:14:07Z</time>
      </trkpt>
      <trkpt lat="45.87584" lon="6.3688">
        <ele>1475</ele>
        <time>2016-08-14T14:16:07Z</time>
      </trkpt>
      <trkpt lat="45.87581" lon="6.36921">
        <ele>1484</ele>
        <time>2016-08-14T14:18:07Z</time>
      </trkpt>
      <trkpt lat="45.87585" lon="6.36943">
        <ele>1487</ele>
        <time>2016-08-14T14:20:07Z</time>
      </trkpt>
      <trkpt lat="45.87607" lon="6.36997">
        <ele>1497</ele>
        <time>2016-08-14T14:22:07Z</time>
      </trkpt>
      <trkpt lat="45.8763" lon="6.37032">
        <ele>1508</ele>
        <time>2016-08-14T14:24:07Z</time>
      </trkpt>
      <trkpt lat="45.87645" lon="6.37044">
        <ele>1515</ele>
        <time>2016-08-14T14:26:07Z</time>
      </trkpt>
      <trkpt lat="45.87675" lon="6.37107">
        <ele>1536</ele>
        <time>2016-08-14T14:28:07Z</time>
      </trkpt>
      <trkpt lat="45.87665" lon="6.3719">
        <ele>1546</ele>
        <time>2016-08-14T14:30:07Z</time>
      </trkpt>
      <trkpt lat="45.87683" lon="6.37297">
        <ele>1560</ele>
        <time>2016-08-14T14:32:07Z</time>
      </trkpt>
      <trkpt lat="45.87709" lon="6.37327">
        <ele>1570</ele>
        <time>2016-08-14T14:34:07Z</time>
      </trkpt>
      <trkpt lat="45.8773" lon="6.37312">
        <ele>1577</ele>
        <time>2016-08-14T14:36:07Z</time>
      </trkpt>
      <trkpt lat="45.87742" lon="6.37312">
        <ele>1581</ele>
        <time>2016-08-14T14:38:07Z</time>
      </trkpt>
      <trkpt lat="45.87789" lon="6.37395">
        <ele>1586</ele>
        <time>2016-08-14T14:40:07Z</time>
      </trkpt>
      <trkpt lat="45.87835" lon="6.3744">
        <ele>1599</ele>
        <time>2016-08-14T14:42:07Z</time>
      </trkpt>
      <trkpt lat="45.87869" lon="6.37506">
        <ele>1608</ele>
        <time>2016-08-14T14:44:07Z</time>
      </trkpt>
      <trkpt lat="45.87872" lon="6.37546">
        <ele>1614</ele>
        <time>2016-08-14T14:46:07Z</time>
      </trkpt>
      <trkpt lat="45.87885" lon="6.37577">
        <ele>1619</ele>
        <time>2016-08-14T14:48:07Z</time>
      </trkpt>
      <trkpt lat="45.87915" lon="6.37689">
        <ele>1637</ele>
        <time>2016-08-14T14:50:07Z</time>
      </trkpt>
      <trkpt lat="45.87939" lon="6.37734">
        <ele>1639</ele>
        <time>2016-08-14T14:52:07Z</time>
      </trkpt>
      <trkpt lat="45.87933" lon="6.37744">
        <ele>1639</ele>
        <time>2016-08-14T14:54:07Z</time>
      </trkpt>
      <trkpt lat="45.87879" lon="6.37743">
        <ele>1629</ele>
        <time>2016-08-14T14:56:07Z</time>
      </trkpt>
      <trkpt lat="45.87847" lon="6.3777">
        <ele>1623</ele>
        <time>2016-08-14T14:58:07Z</time>
      </trkpt>
      <trkpt lat="45.87835" lon="6.37838">
        <ele>1623</ele>
        <time>2016-08-14T15:00:07Z</time>
      </trkpt>
      <trkpt lat="45.87837" lon="6.37867">
        <ele>1625</ele>
        <time>2016-08-14T15:02:07Z</time>
      </trkpt>
      <trkpt lat="45.87854" lon="6.37934">
        <ele>1628</ele>
        <time>2016-08-14T15:04:07Z</time>
      </trkpt>
      <trkpt lat="45.87853" lon="6.38007">
        <ele>1628</ele>
        <time>2016-08-14T15:06:07Z</time>
      </trkpt>
      <trkpt lat="45.87869" lon="6.38079">
        <ele>1629</ele>
        <time>2016-08-14T15:08:07Z</time>
      </trkpt>
      <trkpt lat="45.87876" lon="6.3809">
        <ele>1629</ele>
        <time>2016-08-14T15:10:07Z</time>
      </trkpt>
      <trkpt lat="45.87871" lon="6.38121">
        <ele>1630</ele>
        <time>2016-08-14T15:12:07Z</time>
      </trkpt>
      <trkpt lat="45.87872" lon="6.38185">
        <ele>1630</ele>
        <time>2016-08-14T15:14:07Z</time>
      </trkpt>
      <trkpt lat="45.87863" lon="6.38259">
        <ele>1624</ele>
        <time>2016-08-14T15:16:07Z</time>
      </trkpt>
      <trkpt lat="45.87869" lon="6.3827">
        <ele>1626</ele>
        <time>2016-08-14T15:18:07Z</time>
      </trkpt>
      <trkpt lat="45.87869" lon="6.38309">
        <ele>1627</ele>
        <time>2016-08-14T15:20:07Z</time>
      </trkpt>
      <trkpt lat="45.87848" lon="6.38369">
        <ele>1623</ele>
        <time>2016-08-14T15:22:07Z</time>
      </trkpt>
      <trkpt lat="45.87871" lon="6.38452">
        <ele>1627</ele>
        <time>2016-08-14T15:24:07Z</time>
      </trkpt>
      <trkpt lat="45.8788" lon="6.38462">
        <ele>1629</ele>
        <time>2016-08-14T15:26:07Z</time>
      </trkpt>
      <trkpt lat="45.87909" lon="6.38543">
        <ele>1638</ele>
        <time>2016-08-14T15:28:07Z</time>
      </trkpt>
      <trkpt lat="45.87904" lon="6.38566">
        <ele>1637</ele>
        <time>2016-08-14T15:30:07Z</time>
      </trkpt>
      <trkpt lat="45.87906" lon="6.38597">
        <ele>1637</ele>
        <time>2016-08-14T15:32:07Z</time>
      </trkpt>
      <trkpt lat="45.87922" lon="6.38642">
        <ele>1638</ele>
        <time>2016-08-14T15:34:07Z</time>
      </trkpt>
      <trkpt lat="45.87919" lon="6.38694">
        <ele>1635</ele>
        <time>2016-08-14T15:36:07Z</time>
      </trkpt>
      <trkpt lat="45.8794" lon="6.38779">
        <ele>1635</ele>
        <time>2016-08-14T15:38:07Z</time>
      </trkpt>
      <trkpt lat="45.87938" lon="6.38799">
        <ele>1633</ele>
        <time>2016-08-14T15:40:07Z</time>
      </trkpt>
      <trkpt lat="45.87947" lon="6.38809">
        <ele>1634</ele>
        <time>2016-08-14T15:42:07Z</time>
      </trkpt>
      <trkpt lat="45.87933" lon="6.38806">
        <ele>1632</ele>
        <time>2016-08-14T15:44:07Z</time>
      </trkpt>
      <trkpt lat="45.87939" lon="6.38895">
        <ele>1632</ele>
        <time>2016-08-14T15:46:07Z</time>
      </trkpt>
      <trkpt lat="45.87966" lon="6.38976">
        <ele>1634</ele>
        <time>2016-08-14T15:48:07Z</time>
      </trkpt>
      <trkpt lat="45.87971" lon="6.39042">
        <ele>1634</ele>
        <time>2016-08-14T15:50:07Z</time>
      </trkpt>
      <trkpt lat="45.87942" lon="6.39099">
        <ele>1631</ele>
        <time>2016-08-14T15:52:07Z</time>
      </trkpt>
      <trkpt lat="45.8788" lon="6.3915">
        <ele>1624</ele>
        <time>2016-08-14T15:54:07Z</time>
      </trkpt>
      <trkpt lat="45.87876" lon="6.39161">
        <ele>1623</ele>
        <time>2016-08-14T15:56:07Z</time>
      </trkpt>
      <trkpt lat="45.87844" lon="6.39181">
        <ele>1618</ele>
        <time>2016-08-14T15:58:07Z</time>
      </trkpt>
      <trkpt lat="45.8785" lon="6.39219">
        <ele>1616</ele>
        <time>2016-08-14T16:00:07Z</time>
      </trkpt>
      <trkpt lat="45.87874" lon="6.39258">
        <ele>1614</ele>
        <time>2016-08-14T16:02:07Z</time>
      </trkpt>
      <trkpt lat="45.87882" lon="6.39288">
        <ele>1612</ele>
        <time>2016-08-14T16:04:07Z</time>
      </trkpt>
      <trkpt lat="45.8785" lon="6.39338">
        <ele>1606</ele>
        <time>2016-08-14T16:06:07Z</time>
      </trkpt>
      <trkpt lat="45.87809" lon="6.39339">
        <ele>1600</ele>
        <time>2016-08-14T16:08:07Z</time>
      </trkpt>
      <trkpt lat="45.87788" lon="6.39347">
        <ele>1595</ele>
        <time>2016-08-14T16:10:07Z</time>
      </trkpt>
      <trkpt lat="45.87768" lon="6.39337">
        <ele>1591</ele>
        <time>2016-08-14T16:12:07Z</time>
      </trkpt>
      <trkpt lat="45.87739" lon="6.39288">
        <ele>1584</ele>
        <time>2016-08-14T16:14:07Z</time>
      </trkpt>
      <trkpt lat="45.87713" lon="6.39178">
        <ele>1568</ele>
        <time>2016-08-14T16:16:07Z</time>
      </trkpt>
      <trkpt lat="45.87709" lon="6.39179">
        <ele>1566</ele>
        <time>2016-08-14T16:18:07Z</time>
      </trkpt>
      <trkpt lat="45.87703" lon="6.39206">
        <ele>1564</ele>
        <time>2016-08-14T16:20:07Z</time>
      </trkpt>
      <trkpt lat="45.87671" lon="6.39284">
        <ele>1551</ele>
        <time>2016-08-14T16:22:07Z</time>
      </trkpt>
      <trkpt lat="45.8767" lon="6.39381">
        <ele>1551</ele>
        <time>2016-08-14T16:24:07Z</time>
      </trkpt>
      <trkpt lat="45.87664" lon="6.39419">
        <ele>1548</ele>
        <time>2016-08-14T16:26:07Z</time>
      </trkpt>
      <trkpt lat="45.87669" lon="6.39468">
        <ele>1545</ele>
        <time>2016-08-14T16:28:07Z</time>
      </trkpt>
      <trkpt lat="45.87658" lon="6.39498">
        <ele>1538</ele>
        <time>2016-08-14T16:30:07Z</time>
      </trkpt>
      <trkpt lat="45.87672" lon="6.39567">
        <ele>1538</ele>
        <time>2016-08-14T16:32:07Z</time>
      </trkpt>
      <trkpt lat="45.87671" lon="6.396">
        <ele>1533</ele>
        <time>2016-08-14T16:34:07Z</time>
      </trkpt>
      <trkpt lat="45.87677" lon="6.39617">
        <ele>1533</ele>
        <time>2016-08-14T16:36:07Z</time>
      </trkpt>
      <trkpt lat="45.87669" lon="6.39668">
        <ele>1520</ele>
        <time>2016-08-14T16:38:07Z</time>
      </trkpt>
      <trkpt lat="45.87672" lon="6.39681">
        <ele>1520</ele>
        <time>2016-08-14T16:40:07Z</time>
      </trkpt>
      <trkpt lat="45.87706" lon="6.39732">
        <ele>1529</ele>
        <time>2016-08-14T16:42:07Z</time>
      </trkpt>
      <trkpt lat="45.87726" lon="6.39748">
        <ele>1535</ele>
        <time>2016-08-14T16:44:07Z</time>
      </trkpt>
      <trkpt lat="45.87754" lon="6.39792">
        <ele>1533</ele>
        <time>2016-08-14T16:46:07Z</time>
      </trkpt>
      <trkpt lat="45.8775" lon="6.39819">
        <ele>1522</ele>
        <time>2016-08-14T16:48:07Z</time>
      </trkpt>
      <trkpt lat="45.87741" lon="6.39827">
        <ele>1516</ele>
        <time>2016-08-14T16:50:07Z</time>
      </trkpt>
      <trkpt lat="45.87734" lon="6.39855">
        <ele>1509</ele>
        <time>2016-08-14T16:52:07Z</time>
      </trkpt>
      <trkpt lat="45.87716" lon="6.39888">
        <ele>1500</ele>
        <time>2016-08-14T16:54:07Z</time>
      </trkpt>
      <trkpt lat="45.87713" lon="6.39935">
        <ele>1494</ele>
        <time>2016-08-14T16:56:07Z</time>
      </trkpt>
      <trkpt lat="45.87717" lon="6.39948">
        <ele>1495</ele>
        <time>2016-08-14T16:58:07Z</time>
      </trkpt>
      <trkpt lat="45.87716" lon="6.40031">
        <ele>1490</ele>
        <time>2016-08-14T17:00:07Z</time>
      </trkpt>
      <trkpt lat="45.87724" lon="6.40071">
        <ele>1490</ele>
        <time>2016-08-14T17:02:07Z</time>
      </trkpt>
      <trkpt lat="45.87718" lon="6.4017">
        <ele>1481</ele>
        <time>2016-08-14T17:04:07Z</time>
      </trkpt>
      <trkpt lat="45.87732" lon="6.40289">
        <ele>1474</ele>
        <time>2016-08-14T17:06:07Z</time>
      </trkpt>
      <trkpt lat="45.87744" lon="6.40323">
        <ele>1473</ele>
        <time>2016-08-14T17:08:07Z</time>
      </trkpt>
      <trkpt lat="45.87745" lon="6.40347">
        <ele>1471</ele>
        <time>2016-08-14T17:10:07Z</time>
      </trkpt>
      <trkpt lat="45.87761" lon="6.4037">
        <ele>1471</ele>
        <time>2016-08-14T17:12:07Z</time>
      </trkpt>
      <trkpt lat="45.87747" lon="6.40417">
        <ele>1465</ele>
        <time>2016-08-14T17:14:07Z</time>
      </trkpt>
      <trkpt lat="45.87719" lon="6.40463">
        <ele>1466</ele>
        <time>2016-08-14T17:16:07Z</time>
      </trkpt>
      <trkpt lat="45.87732" lon="6.4054">
        <ele>1466</ele>
        <time>2016-08-14T17:18:07Z</time>
      </trkpt>
      <trkpt lat="45.87745" lon="6.4057">
        <ele>1466</ele>
        <time>2016-08-14T17:20:07Z</time>
      </trkpt>
      <trkpt lat="45.87758" lon="6.40584">
        <ele>1465</ele>
        <time>2016-08-14T17:22:07Z</time>
      </trkpt>
      <trkpt lat="45.87751" lon="6.40612">
        <ele>1467</ele>
        <time>2016-08-14T17:24:07Z</time>
      </trkpt>
      <trkpt lat="45.87782" lon="6.40712">
        <ele>1466</ele>
        <time>2016-08-14T17:26:07Z</time>
      </trkpt>
      <trkpt lat="45.87784" lon="6.40761">
        <ele>1471</ele>
        <time>2016-08-14T17:28:07Z</time>
      </trkpt>
      <trkpt lat="45.87807" lon="6.40836">
        <ele>1474</ele>
        <time>2016-08-14T17:30:07Z</time>
      </trkpt>
      <trkpt lat="45.87795" lon="6.40903">
        <ele>1482</ele>
        <time>2016-08-14T17:32:07Z</time>
      </trkpt>
      <trkpt lat="45.87798" lon="6.40919">
        <ele>1481</ele>
        <time>2016-08-14T17:34:07Z</time>
      </trkpt>
      <trkpt lat="45.87783" lon="6.40975">
        <ele>1492</ele>
        <time>2016-08-14T17:36:07Z</time>
      </trkpt>
      <trkpt lat="45.87789" lon="6.41003">
        <ele>1491</ele>
        <time>2016-08-14T17:38:07Z</time>
      </trkpt>
      <trkpt lat="45.8778" lon="6.41074">
        <ele>1493</ele>
        <time>2016-08-14T17:40:07Z</time>
      </trkpt>
      <trkpt lat="45.87785" lon="6.41103">
        <ele>1488</ele>
        <time>2016-08-14T17:42:07Z</time>
      </trkpt>
      <trkpt lat="45.87754" lon="6.41267">
        <ele>1495</ele>
        <time>2016-08-14T17:44:07Z</time>
      </trkpt>
      <trkpt lat="45.87756" lon="6.41282">
        <ele>1494</ele>
        <time>2016-08-14T17:46:07Z</time>
      </trkpt>
      <trkpt lat="45.87772" lon="6.41307">
        <ele>1489</ele>
        <time>2016-08-14T17:48:07Z</time>
      </trkpt>
      <trkpt lat="45.87781" lon="6.41347">
        <ele>1487</ele>
        <time>2016-08-14T17:50:07Z</time>
      </trkpt>
      <trkpt lat="45.87782" lon="6.41403">
        <ele>1486</ele>
        <time>2016-08-14T17:52:07Z</time>
      </trkpt>
      <trkpt lat="45.87777" lon="6.41458">
        <ele>1484</ele>
        <time>2016-08-14T17:54:07Z</time>
      </trkpt>
      <trkpt lat="45.87748" lon="6.41491">
        <ele>1488</ele>
        <time>2016-08-14T17:56:07Z</time>
      </trkpt>
      <trkpt lat="45.87707" lon="6.41488">
        <ele>1490</ele>
        <time>2016-08-14T17:58:07Z</time>
      </trkpt>
      <trkpt lat="45.87651" lon="6.41463">
        <ele>1496</ele>
        <time>2016-08-14T18:00:07Z</time>
      </trkpt>
      <trkpt lat="45.87619" lon="6.41465">
        <ele>1496</ele>
        <time>2016-08-14T18:02:07Z</time>
      </trkpt>
      <trkpt lat="45.87573" lon="6.41444">
        <ele>1501</ele>
        <time>2016-08-14T18:04:07Z</time>
      </trkpt>
      <trkpt lat="45.87541" lon="6.4144">
        <ele>1504</ele>
        <time>2016-08-14T18:06:07Z</time>
      </trkpt>
      <trkpt lat="45.87476" lon="6.41489">
        <ele>1499</ele>
        <time>2016-08-14T18:08:07Z</time>
      </trkpt>
      <trkpt lat="45.87455" lon="6.41535">
        <ele>1495</ele>
        <time>2016-08-14T18:10:07Z</time>
      </trkpt>
      <trkpt lat="45.87439" lon="6.41555">
        <ele>1496</ele>
        <time>2016-08-14T18:12:07Z</time>
      </trkpt>
      <trkpt lat="45.87339" lon="6.41617">
        <ele>1500</ele>
        <time>2016-08-14T18:14:07Z</time>
      </trkpt>
      <trkpt lat="45.87278" lon="6.4163">
        <ele>1500</ele>
        <time>2016-08-14T18:16:07Z</time>
      </trkpt>
      <trkpt lat="45.87234" lon="6.41627">
        <ele>1502</ele>
        <time>2016-08-14T18:18:07Z</time>
      </trkpt>
      <trkpt lat="45.8717" lon="6.41607">
        <ele>1508</ele>
        <time>2016-08-14T18:20:07Z</time>
      </trkpt>
      <trkpt lat="45.87147" lon="6.41612">
        <ele>1505</ele>
        <time>2016-08-14T18:22:07Z</time>
      </trkpt>
      <trkpt lat="45.8712" lon="6.41593">
        <ele>1510</ele>
        <time>2016-08-14T18:24:07Z</time>
      </trkpt>
      <trkpt lat="45.87088" lon="6.41589">
        <ele>1510</ele>
        <time>2016-08-14T18:26:07Z</time>
      </trkpt>
      <trkpt lat="45.86987" lon="6.41615">
        <ele>1503</ele>
        <time>2016-08-14T18:28:07Z</time>
      </trkpt>
      <trkpt lat="45.86898" lon="6.41597">
        <ele>1510</ele>
        <time>2016-08-14T18:30:07Z</time>
      </trkpt>
      <trkpt lat="45.8681" lon="6.41607">
        <ele>1503</ele>
        <time>2016-08-14T18:32:07Z</time>
      </trkpt>
      <trkpt lat="45.86748" lon="6.41646">
        <ele>1498</ele>
        <time>2016-08-14T18:34:07Z</time>
      </trkpt>
      <trkpt lat="45.86562" lon="6.41694">
        <ele>1498</ele>
        <time>2016-08-14T18:36:07Z</time>
      </trkpt>
      <trkpt lat="45.86437" lon="6.41693">
        <ele>1501</ele>
        <time>2016-08-14T18:38:07Z</time>
      </trkpt>
      <trkpt lat="45.8638" lon="6.41676">
        <ele>1502</ele>
        <time>2016-08-14T18:40:07Z</time>
      </trkpt>
      <trkpt lat="45.86298" lon="6.41662">
        <ele>1498</ele>
        <time>2016-08-14T18:42:07Z</time>
      </trkpt>
      <trkpt lat="45.86247" lon="6.41686">
        <ele>1494</ele>
        <time>2016-08-14T18:44:07Z</time>
      </trkpt>
      <trkpt lat="45.86193" lon="6.41721">
        <ele>1492</ele>
        <time>2016-08-14T18:46:07Z</time>
      </trkpt>
      <trkpt lat="45.86165" lon="6.41725">
        <ele>1491</ele>
        <time>2016-08-14T18:48:07Z</time>
      </trkpt>
      <trkpt lat="45.86111" lon="6.41712">
        <ele>1490</ele>
        <time>2016-08-14T18:50:07Z</time>
      </trkpt>
      <trkpt lat="45.86026" lon="6.41654">
        <ele>1488</ele>
        <time>2016-08-14T18:52:07Z</time>
      </trkpt>
      <trkpt lat="45.8596" lon="6.41634">
        <ele>1486</ele>
        <time>2016-08-14T18:54:07Z</time>
      </trkpt>
      <trkpt lat="45.85847" lon="6.41571">
        <ele>1477</ele>
        <time>2016-08-14T18:56:07Z</time>
      </trkpt>
      <trkpt lat="45.85835" lon="6.41536">
        <ele>1475</ele>
        <time>2016-08-14T18:58:07Z</time>
      </trkpt>
      <trkpt lat="45.85844" lon="6.41483">
        <ele>1475</ele>
        <time>2016-08-14T19:00:07Z</time>
      </trkpt>
      <trkpt lat="45.85836" lon="6.41442">
        <ele>1475</ele>
        <time>2016-08-14T19:02:07Z</time>
      </trkpt>
      <trkpt lat="45.85781" lon="6.41388">
        <ele>1470</ele>
        <time>2016-08-14T19:04:07Z</time>
      </trkpt>
      <trkpt lat="45.85733" lon="6.41321">
        <ele>1463</ele>
        <time>2016-08-14T19:06:07Z</time>
      </trkpt>
      <trkpt lat="45.85689" lon="6.41241">
        <ele>1449</ele>
        <time>2016-08-14T19:08:07Z</time>
      </trkpt>
      <trkpt lat="45.85683" lon="6.41191">
        <ele>1449</ele>
        <time>2016-08-14T19:10:07Z</time>
      </trkpt>
      <trkpt lat="45.8567" lon="6.41165">
        <ele>1444</ele>
        <time>2016-08-14T19:12:07Z</time>
      </trkpt>
      <trkpt lat="45.85645" lon="6.41149">
        <ele>1434</ele>
        <time>2016-08-14T19:14:07Z</time>
      </trkpt>
      <trkpt lat="45.8563" lon="6.41115">
        <ele>1429</ele>
        <time>2016-08-14T19:16:07Z</time>
      </trkpt>
      <trkpt lat="45.85597" lon="6.41085">
        <ele>1416</ele>
        <time>2016-08-14T19:18:07Z</time>
      </trkpt>
      <trkpt lat="45.85572" lon="6.41027">
        <ele>1398</ele>
        <time>2016-08-14T19:20:07Z</time>
      </trkpt>
      <trkpt lat="45.85557" lon="6.41023">
        <ele>1389</ele>
        <time>2016-08-14T19:22:07Z</time>
      </trkpt>
      <trkpt lat="45.85538" lon="6.40929">
        <ele>1365</ele>
        <time>2016-08-14T19:24:07Z</time>
      </trkpt>
      <trkpt lat="45.85504" lon="6.40949">
        <ele>1352</ele>
        <time>2016-08-14T19:26:07Z</time>
      </trkpt>
      <trkpt lat="45.85486" lon="6.40915">
        <ele>1341</ele>
        <time>2016-08-14T19:28:07Z</time>
      </trkpt>
      <trkpt lat="45.85473" lon="6.40913">
        <ele>1336</ele>
        <time>2016-08-14T19:30:07Z</time>
      </trkpt>
      <trkpt lat="45.85468" lon="6.40919">
        <ele>1336</ele>
        <time>2016-08-14T19:32:07Z</time>
      </trkpt>
      <trkpt lat="45.8539" lon="6.40868">
        <ele>1295</ele>
        <time>2016-08-14T19:34:07Z</time>
      </trkpt>
      <trkpt lat="45.85353" lon="6.40861">
        <ele>1280</ele>
        <time>2016-08-14T19:36:07Z</time>
      </trkpt>
      <trkpt lat="45.85342" lon="6.40847">
        <ele>1277</ele>
        <time>2016-08-14T19:38:07Z</time>
      </trkpt>
      <trkpt lat="45.85325" lon="6.40857">
        <ele>1271</ele>
        <time>2016-08-14T19:40:07Z</time>
      </trkpt>
      <trkpt lat="45.85306" lon="6.40855">
        <ele>1264</ele>
        <time>2016-08-14T19:42:07Z</time>
      </trkpt>
      <trkpt lat="45.85308" lon="6.40884">
        <ele>1262</ele>
        <time>2016-08-14T19:44:07Z</time>
      </trkpt>
      <trkpt lat="45.85288" lon="6.40843">
        <ele>1259</ele>
        <time>2016-08-14T19:46:07Z</time>
      </trkpt>
      <trkpt lat="45.85269" lon="6.40823">
        <ele>1252</ele>
        <time>2016-08-14T19:48:07Z</time>
      </trkpt>
      <trkpt lat="45.85226" lon="6.40756">
        <ele>1232</ele>
        <time>2016-08-14T19:50:07Z</time>
      </trkpt>
      <trkpt lat="45.85213" lon="6.40749">
        <ele>1229</ele>
        <time>2016-08-14T19:52:07Z</time>
      </trkpt>
      <trkpt lat="45.85149" lon="6.40751">
        <ele>1210</ele>
        <time>2016-08-14T19:54:07Z</time>
      </trkpt>
      <trkpt lat="45.85143" lon="6.40761">
        <ele>1206</ele>
        <time>2016-08-14T19:56:07Z</time>
      </trkpt>
      <trkpt lat="45.85154" lon="6.40784">
        <ele>1209</ele>
        <time>2016-08-14T19:58:07Z</time>
      </trkpt>
      <trkpt lat="45.85162" lon="6.40828">
        <ele>1209</ele>
        <time>2016-08-14T20:00:07Z</time>
      </trkpt>
      <trkpt lat="45.85154" lon="6.40864">
        <ele>1199</ele>
        <time>2016-08-14T20:02:07Z</time>
      </trkpt>
      <trkpt lat="45.85157" lon="6.40884">
        <ele>1197</ele>
        <time>2016-08-14T20:04:07Z</time>
      </trkpt>
      <trkpt lat="45.85152" lon="6.40915">
        <ele>1190</ele>
        <time>2016-08-14T20:06:07Z</time>
      </trkpt>
      <trkpt lat="45.85134" lon="6.40942">
        <ele>1180</ele>
        <time>2016-08-14T20:08:07Z</time>
      </trkpt>
      <trkpt lat="45.85136" lon="6.40957">
        <ele>1180</ele>
        <time>2016-08-14T20:10:07Z</time>
      </trkpt>
      <trkpt lat="45.85153" lon="6.40984">
        <ele>1184</ele>
        <time>2016-08-14T20:12:07Z</time>
      </trkpt>
      <trkpt lat="45.85165" lon="6.41028">
        <ele>1184</ele>
        <time>2016-08-14T20:14:07Z</time>
      </trkpt>
      <trkpt lat="45.85167" lon="6.41068">
        <ele>1181</ele>
        <time>2016-08-14T20:16:07Z</time>
      </trkpt>
      <trkpt lat="45.85186" lon="6.41119">
        <ele>1183</ele>
        <time>2016-08-14T20:18:07Z</time>
      </trkpt>
      <trkpt lat="45.85186" lon="6.41159">
        <ele>1177</ele>
        <time>2016-08-14T20:20:07Z</time>
      </trkpt>
      <trkpt lat="45.85174" lon="6.41188">
        <ele>1168</ele>
        <time>2016-08-14T20:22:07Z</time>
      </trkpt>
      <trkpt lat="45.85161" lon="6.41184">
        <ele>1163</ele>
        <time>2016-08-14T20:24:07Z</time>
      </trkpt>
      <trkpt lat="45.85117" lon="6.41102">
        <ele>1158</ele>
        <time>2016-08-14T20:26:07Z</time>
      </trkpt>
      <trkpt lat="45.85067" lon="6.41052">
        <ele>1145</ele>
        <time>2016-08-14T20:28:07Z</time>
      </trkpt>
      <trkpt lat="45.85056" lon="6.41031">
        <ele>1143</ele>
        <time>2016-08-14T20:30:07Z</time>
      </trkpt>
      <trkpt lat="45.85047" lon="6.4098">
        <ele>1142</ele>
        <time>2016-08-14T20:32:07Z</time>
      </trkpt>
      <trkpt lat="45.85025" lon="6.4092">
        <ele>1133</ele>
        <time>2016-08-14T20:34:07Z</time>
      </trkpt>
      <trkpt lat="45.85027" lon="6.40875">
        <ele>1137</ele>
        <time>2016-08-14T20:36:07Z</time>
      </trkpt>
      <trkpt lat="45.8502" lon="6.40849">
        <ele>1136</ele>
        <time>2016-08-14T20:38:07Z</time>
      </trkpt>
      <trkpt lat="45.84961" lon="6.40793">
        <ele>1116</ele>
        <time>2016-08-14T20:40:07Z</time>
      </trkpt>
      <trkpt lat="45.84955" lon="6.40757">
        <ele>1116</ele>
        <time>2016-08-14T20:42:07Z</time>
      </trkpt>
      <trkpt lat="45.84968" lon="6.4071">
        <ele>1116</ele>
        <time>2016-08-14T20:44:07Z</time>
      </trkpt>
      <trkpt lat="45.84972" lon="6.40674">
        <ele>1112</ele>
        <time>2016-08-14T20:46:07Z</time>
      </trkpt>
      <trkpt lat="45.8499" lon="6.40643">
        <ele>1113</ele>
        <time>2016-08-14T20:48:07Z</time>
      </trkpt>
      <trkpt lat="45.85031" lon="6.40602">
        <ele>1121</ele>
        <time>2016-08-14T20:50:07Z</time>
      </trkpt>
      <trkpt lat="45.85046" lon="6.40561">
        <ele>1120</ele>
        <time>2016-08-14T20:52:07Z</time>
      </trkpt>
      <trkpt lat="45.85049" lon="6.40521">
        <ele>1117</ele>
        <time>2016-08-14T20:54:07Z</time>
      </trkpt>
      <trkpt lat="45.85126" lon="6.4043">
        <ele>1129</ele>
        <time>2016-08-14T20:56:07Z</time>
      </trkpt>
      <trkpt lat="45.85141" lon="6.404">
        <ele>1127</ele>
        <time>2016-08-14T20:58:07Z</time>
      </trkpt>
      <trkpt lat="45.8518" lon="6.40398">
        <ele>1138</ele>
        <time>2016-08-14T21:00:07Z</time>
      </trkpt>
      <trkpt lat="45.85196" lon="6.40443">
        <ele>1148</ele>
        <time>2016-08-14T21:02:07Z</time>
      </trkpt>
      <trkpt lat="45.85213" lon="6.40461">
        <ele>1152</ele>
        <time>2016-08-14T21:04:07Z</time>
      </trkpt>
      <trkpt lat="45.85252" lon="6.40463">
        <ele>1155</ele>
        <time>2016-08-14T21:06:07Z</time>
      </trkpt>
      <trkpt lat="45.85269" lon="6.40382">
        <ele>1156</ele>
        <time>2016-08-14T21:08:07Z</time>
      </trkpt>
      <trkpt lat="45.8531" lon="6.40283">
        <ele>1158</ele>
        <time>2016-08-14T21:10:07Z</time>
      </trkpt>
      <trkpt lat="45.85333" lon="6.40277">
        <ele>1164</ele>
        <time>2016-08-14T21:12:07Z</time>
      </trkpt>
      <trkpt lat="45.8536" lon="6.40292">
        <ele>1171</ele>
        <time>2016-08-14T21:14:07Z</time>
      </trkpt>
      <trkpt lat="45.85371" lon="6.40314">
        <ele>1178</ele>
        <time>2016-08-14T21:16:07Z</time>
      </trkpt>
      <trkpt lat="45.85397" lon="6.40315">
        <ele>1182</ele>
        <time>2016-08-14T21:18:07Z</time>
      </trkpt>
      <trkpt lat="45.85429" lon="6.4033">
        <ele>1191</ele>
        <time>2016-08-14T21:20:07Z</time>
      </trkpt>
      <trkpt lat="45.85445" lon="6.40323">
        <ele>1193</ele>
        <time>2016-08-14T21:22:07Z</time>
      </trkpt>
      <trkpt lat="45.85457" lon="6.40329">
        <ele>1196</ele>
        <time>2016-08-14T21:24:07Z</time>
      </trkpt>
      <trkpt lat="45.85481" lon="6.40323">
        <ele>1200</ele>
        <time>2016-08-14T21:26:07Z</time>
      </trkpt>
      <trkpt lat="45.85533" lon="6.40265">
        <ele>1199</ele>
        <time>2016-08-14T21:28:07Z</time>
      </trkpt>
      <trkpt lat="45.85557" lon="6.40265">
        <ele>1206</ele>
        <time>2016-08-14T21:30:07Z</time>
      </trkpt>
      <trkpt lat="45.85588" lon="6.40253">
        <ele>1211</ele>
        <time>2016-08-14T21:32:07Z</time>
      </trkpt>
      <trkpt lat="45.85616" lon="6.40262">
        <ele>1219</ele>
        <time>2016-08-14T21:34:07Z</time>
      </trkpt>
      <trkpt lat="45.85651" lon="6.40246">
        <ele>1220</ele>
        <time>2016-08-14T21:36:07Z</time>
      </trkpt>
      <trkpt lat="45.85672" lon="6.40267">
        <ele>1231</ele>
        <time>2016-08-14T21:38:07Z</time>
      </trkpt>
      <trkpt lat="45.85708" lon="6.40275">
        <ele>1242</ele>
        <time>2016-08-14T21:40:07Z</time>
      </trkpt>
      <trkpt lat="45.85716" lon="6.40259">
        <ele>1240</ele>
        <time>2016-08-14T21:42:07Z</time>
      </trkpt>
      <trkpt lat="45.85694" lon="6.4018">
        <ele>1223</ele>
        <time>2016-08-14T21:44:07Z</time>
      </trkpt>
      <trkpt lat="45.85686" lon="6.4009">
        <ele>1214</ele>
        <time>2016-08-14T21:46:07Z</time>
      </trkpt>
      <trkpt lat="45.85678" lon="6.40065">
        <ele>1209</ele>
        <time>2016-08-14T21:48:07Z</time>
      </trkpt>
      <trkpt lat="45.85677" lon="6.40038">
        <ele>1208</ele>
        <time>2016-08-14T21:50:07Z</time>
      </trkpt>
      <trkpt lat="45.85682" lon="6.40025">
        <ele>1209</ele>
        <time>2016-08-14T21:52:07Z</time>
      </trkpt>
      <trkpt lat="45.85708" lon="6.40003">
        <ele>1220</ele>
        <time>2016-08-14T21:54:07Z</time>
      </trkpt>
      <trkpt lat="45.85709" lon="6.39986">
        <ele>1218</ele>
        <time>2016-08-14T21:56:07Z</time>
      </trkpt>
      <trkpt lat="45.85699" lon="6.39962">
        <ele>1211</ele>
        <time>2016-08-14T21:58:07Z</time>
      </trkpt>
      <trkpt lat="45.85705" lon="6.39956">
        <ele>1212</ele>
        <time>2016-08-14T22:00:07Z</time>
      </trkpt>
      <trkpt lat="45.85707" lon="6.39963">
        <ele>1214</ele>
        <time>2016-08-14T22:02:07Z</time>
      </trkpt>
      <trkpt lat="45.85741" lon="6.39983">
        <ele>1230</ele>
        <time>2016-08-14T22:04:07Z</time>
      </trkpt>
      <trkpt lat="45.85745" lon="6.39966">
        <ele>1229</ele>
        <time>2016-08-14T22:06:07Z</time>
      </trkpt>
      <trkpt lat="45.85783" lon="6.39932">
        <ele>1238</ele>
        <time>2016-08-14T22:08:07Z</time>
      </trkpt>
      <trkpt lat="45.85818" lon="6.39934">
        <ele>1253</ele>
        <time>2016-08-14T22:10:07Z</time>
      </trkpt>
      <trkpt lat="45.85833" lon="6.39963">
        <ele>1260</ele>
        <time>2016-08-14T22:12:07Z</time>
      </trkpt>
      <trkpt lat="45.85836" lon="6.39996">
        <ele>1263</ele>
        <time>2016-08-14T22:14:07Z</time>
      </trkpt>
      <trkpt lat="45.85849" lon="6.40023">
        <ele>1274</ele>
        <time>2016-08-14T22:16:07Z</time>
      </trkpt>
      <trkpt lat="45.85852" lon="6.40054">
        <ele>1281</ele>
        <time>2016-08-14T22:18:07Z</time>
      </trkpt>
      <trkpt lat="45.85876" lon="6.40099">
        <ele>1297</ele>
        <time>2016-08-14T22:20:07Z</time>
      </trkpt>
      <trkpt lat="45.85869" lon="6.40111">
        <ele>1295</ele>
        <time>2016-08-14T22:22:07Z</time>
      </trkpt>
      <trkpt lat="45.85872" lon="6.40142">
        <ele>1300</ele>
        <time>2016-08-14T22:24:07Z</time>
      </trkpt>
      <trkpt lat="45.85835" lon="6.4016">
        <ele>1292</ele>
        <time>2016-08-14T22:26:07Z</time>
      </trkpt>
      <trkpt lat="45.85828" lon="6.40173">
        <ele>1292</ele>
        <time>2016-08-14T22:28:07Z</time>
      </trkpt>
      <trkpt lat="45.85827" lon="6.40207">
        <ele>1297</ele>
        <time>2016-08-14T22:30:07Z</time>
      </trkpt>
      <trkpt lat="45.85855" lon="6.40195">
        <ele>1305</ele>
        <time>2016-08-14T22:32:07Z</time>
      </trkpt>
      <trkpt lat="45.85872" lon="6.40196">
        <ele>1310</ele>
        <time>2016-08-14T22:34:07Z</time>
      </trkpt>
      <trkpt lat="45.85921" lon="6.40226">
        <ele>1333</ele>
        <time>2016-08-14T22:36:07Z</time>
      </trkpt>
      <trkpt lat="45.85924" lon="6.40244">
        <ele>1339</ele>
        <time>2016-08-14T22:38:07Z</time>
      </trkpt>
      <trkpt lat="45.85913" lon="6.4026">
        <ele>1339</ele>
        <time>2016-08-14T22:40:07Z</time>
      </trkpt>
      <trkpt lat="45.8589" lon="6.40264">
        <ele>1330</ele>
        <time>2016-08-14T22:42:07Z</time>
      </trkpt>
      <trkpt lat="45.85888" lon="6.40274">
        <ele>1330</ele>
        <time>2016-08-14T22:44:07Z</time>
      </trkpt>
      <trkpt lat="45.85912" lon="6.40289">
        <ele>1342</ele>
        <time>2016-08-14T22:46:07Z</time>
      </trkpt>
      <trkpt lat="45.85931" lon="6.40314">
        <ele>1352</ele>
        <time>2016-08-14T22:48:07Z</time>
      </trkpt>
      <trkpt lat="45.85963" lon="6.4031">
        <ele>1363</ele>
        <time>2016-08-14T22:50:07Z</time>
      </trkpt>
      <trkpt lat="45.85971" lon="6.40316">
        <ele>1367</ele>
        <time>2016-08-14T22:52:07Z</time>
      </trkpt>
      <trkpt lat="45.86008" lon="6.4031">
        <ele>1380</ele>
        <time>2016-08-14T22:54:07Z</time>
      </trkpt>
      <trkpt lat="45.86012" lon="6.40322">
        <ele>1385</ele>
        <time>2016-08-14T22:56:07Z</time>
      </trkpt>
      <trkpt lat="45.85982" lon="6.4039">
        <ele>1387</ele>
        <time>2016-08-14T22:58:07Z</time>
      </trkpt>
      <trkpt lat="45.85996" lon="6.40427">
        <ele>1404</ele>
        <time>2016-08-14T23:00:07Z</time>
      </trkpt>
      <trkpt lat="45.85997" lon="6.40475">
        <ele>1410</ele>
        <time>2016-08-14T23:02:07Z</time>
      </trkpt>
      <trkpt lat="45.85987" lon="6.40496">
        <ele>1409</ele>
        <time>2016-08-14T23:04:07Z</time>
      </trkpt>
      <trkpt lat="45.85933" lon="6.40554">
        <ele>1415</ele>
        <time>2016-08-14T23:06:07Z</time>
      </trkpt>
      <trkpt lat="45.85903" lon="6.40626">
        <ele>1428</ele>
        <time>2016-08-14T23:08:07Z</time>
      </trkpt>
      <trkpt lat="45.859" lon="6.4069">
        <ele>1444</ele>
        <time>2016-08-14T23:10:07Z</time>
      </trkpt>
      <trkpt lat="45.85904" lon="6.40691">
        <ele>1446</ele>
        <time>2016-08-14T23:12:07Z</time>
      </trkpt>
      <trkpt lat="45.85938" lon="6.40635">
        <ele>1441</ele>
        <time>2016-08-14T23:14:07Z</time>
      </trkpt>
      <trkpt lat="45.85965" lon="6.40616">
        <ele>1444</ele>
        <time>2016-08-14T23:16:07Z</time>
      </trkpt>
      <trkpt lat="45.86005" lon="6.40628">
        <ele>1460</ele>
        <time>2016-08-14T23:18:07Z</time>
      </trkpt>
      <trkpt lat="45.86038" lon="6.40615">
        <ele>1465</ele>
        <time>2016-08-14T23:20:07Z</time>
      </trkpt>
      <trkpt lat="45.86087" lon="6.40539">
        <ele>1461</ele>
        <time>2016-08-14T23:22:07Z</time>
      </trkpt>
      <trkpt lat="45.8615" lon="6.40502">
        <ele>1488</ele>
        <time>2016-08-14T23:24:07Z</time>
      </trkpt>
      <trkpt lat="45.8615" lon="6.40444">
        <ele>1475</ele>
        <time>2016-08-14T23:26:07Z</time>
      </trkpt>
      <trkpt lat="45.86193" lon="6.40373">
        <ele>1487</ele>
        <time>2016-08-14T23:28:07Z</time>
      </trkpt>
      <trkpt lat="45.86181" lon="6.40219">
        <ele>1471</ele>
        <time>2016-08-14T23:30:07Z</time>
      </trkpt>
      <trkpt lat="45.86192" lon="6.40132">
        <ele>1463</ele>
        <time>2016-08-14T23:32:07Z</time>
      </trkpt>
      <trkpt lat="45.8621" lon="6.4011">
        <ele>1465</ele>
        <time>2016-08-14T23:34:07Z</time>
      </trkpt>
      <trkpt lat="45.86222" lon="6.40105">
        <ele>1467</ele>
        <time>2016-08-14T23:36:07Z</time>
      </trkpt>
      <trkpt lat="45.86266" lon="6.4012">
        <ele>1483</ele>
        <time>2016-08-14T23:38:07Z</time>
      </trkpt>
      <trkpt lat="45.8631" lon="6.4008">
        <ele>1473</ele>
        <time>2016-08-14T23:40:07Z</time>
      </trkpt>
      <trkpt lat="45.86367" lon="6.40052">
        <ele>1462</ele>
        <time>2016-08-14T23:42:07Z</time>
      </trkpt>
      <trkpt lat="45.86399" lon="6.40006">
        <ele>1448</ele>
        <time>2016-08-14T23:44:07Z</time>
      </trkpt>
      <trkpt lat="45.8642" lon="6.40008">
        <ele>1447</ele>
        <time>2016-08-14T23:46:07Z</time>
      </trkpt>
      <trkpt lat="45.86428" lon="6.40032">
        <ele>1448</ele>
        <time>2016-08-14T23:48:07Z</time>
      </trkpt>
      <trkpt lat="45.86428" lon="6.40059">
        <ele>1454</ele>
        <time>2016-08-14T23:50:07Z</time>
      </trkpt>
      <trkpt lat="45.86446" lon="6.40099">
        <ele>1451</ele>
        <time>2016-08-14T23:52:07Z</time>
      </trkpt>
      <trkpt lat="45.86473" lon="6.401">
        <ele>1435</ele>
        <time>2016-08-14T23:54:07Z</time>
      </trkpt>
      <trkpt lat="45.86494" lon="6.40135">
        <ele>1431</ele>
        <time>2016-08-14T23:56:07Z</time>
      </trkpt>
      <trkpt lat="45.86518" lon="6.40161">
        <ele>1430</ele>
        <time>2016-08-14T23:58:07Z</time>
      </trkpt>
      <trkpt lat="45.86538" lon="6.40166">
        <ele>1426</ele>
        <time>2016-08-15T00:00:07Z</time>
      </trkpt>
      <trkpt lat="45.86584" lon="6.40221">
        <ele>1435</ele>
        <time>2016-08-15T00:02:07Z</time>
      </trkpt>
      <trkpt lat="45.86591" lon="6.40249">
        <ele>1443</ele>
        <time>2016-08-15T00:04:07Z</time>
      </trkpt>
      <trkpt lat="45.86596" lon="6.40242">
        <ele>1439</ele>
        <time>2016-08-15T00:06:07Z</time>
      </trkpt>
      <trkpt lat="45.86603" lon="6.40244">
        <ele>1438</ele>
        <time>2016-08-15T00:08:07Z</time>
      </trkpt>
      <trkpt lat="45.86617" lon="6.40273">
        <ele>1445</ele>
        <time>2016-08-15T00:10:07Z</time>
      </trkpt>
      <trkpt lat="45.86618" lon="6.40285">
        <ele>1449</ele>
        <time>2016-08-15T00:12:07Z</time>
      </trkpt>
      <trkpt lat="45.86631" lon="6.40298">
        <ele>1450</ele>
        <time>2016-08-15T00:14:07Z</time>
      </trkpt>
      <trkpt lat="45.86641" lon="6.40288">
        <ele>1444</ele>
        <time>2016-08-15T00:16:07Z</time>
      </trkpt>
      <trkpt lat="45.8667" lon="6.40234">
        <ele>1418</ele>
        <time>2016-08-15T00:18:07Z</time>
      </trkpt>
      <trkpt lat="45.86691" lon="6.40217">
        <ele>1411</ele>
        <time>2016-08-15T00:20:07Z</time>
      </trkpt>
      <trkpt lat="45.86726" lon="6.40211">
        <ele>1409</ele>
        <time>2016-08-15T00:22:07Z</time>
      </trkpt>
      <trkpt lat="45.8679" lon="6.40102">
        <ele>1391</ele>
        <time>2016-08-15T00:24:07Z</time>
      </trkpt>
      <trkpt lat="45.86828" lon="6.40095">
        <ele>1402</ele>
        <time>2016-08-15T00:26:07Z</time>
      </trkpt>
      <trkpt lat="45.86872" lon="6.40046">
        <ele>1398</ele>
        <time>2016-08-15T00:28:07Z</time>
      </trkpt>
      <trkpt lat="45.86903" lon="6.40026">
        <ele>1400</ele>
        <time>2016-08-15T00:30:07Z</time>
      </trkpt>
      <trkpt lat="45.86922" lon="6.40001">
        <ele>1397</ele>
        <time>2016-08-15T00:32:07Z</time>
      </trkpt>
      <trkpt lat="45.86945" lon="6.39996">
        <ele>1401</ele>
        <time>2016-08-15T00:34:07Z</time>
      </trkpt>
      <trkpt lat="45.86976" lon="6.39969">
        <ele>1399</ele>
        <time>2016-08-15T00:36:07Z</time>
      </trkpt>
      <trkpt lat="45.87059" lon="6.39986">
        <ele>1420</ele>
        <time>2016-08-15T00:38:07Z</time>
      </trkpt>
      <trkpt lat="45.87079" lon="6.39972">
        <ele>1417</ele>
        <time>2016-08-15T00:40:07Z</time>
      </trkpt>
      <trkpt lat="45.87151" lon="6.39945">
        <ele>1413</ele>
        <time>2016-08-15T00:42:07Z</time>
      </trkpt>
      <trkpt lat="45.87167" lon="6.39948">
        <ele>1416</ele>
        <time>2016-08-15T00:44:07Z</time>
      </trkpt>
      <trkpt lat="45.87232" lon="6.39988">
        <ele>1415</ele>
        <time>2016-08-15T00:46:07Z</time>
      </trkpt>
      <trkpt lat="45.8724" lon="6.40007">
        <ele>1420</ele>
        <time>2016-08-15T00:48:07Z</time>
      </trkpt>
      <trkpt lat="45.87263" lon="6.40032">
        <ele>1427</ele>
        <time>2016-08-15T00:50:07Z</time>
      </trkpt>
      <trkpt lat="45.87271" lon="6.4005">
        <ele>1432</ele>
        <time>2016-08-15T00:52:07Z</time>
      </trkpt>
      <trkpt lat="45.87302" lon="6.40073">
        <ele>1431</ele>
        <time>2016-08-15T00:54:07Z</time>
      </trkpt>
      <trkpt lat="45.87329" lon="6.40105">
        <ele>1431</ele>
        <time>2016-08-15T00:56:07Z</time>
      </trkpt>
      <trkpt lat="45.87363" lon="6.40123">
        <ele>1432</ele>
        <time>2016-08-15T00:58:07Z</time>
      </trkpt>
      <trkpt lat="45.87417" lon="6.4013">
        <ele>1427</ele>
        <time>2016-08-15T01:00:07Z</time>
      </trkpt>
      <trkpt lat="45.87446" lon="6.40161">
        <ele>1434</ele>
        <time>2016-08-15T01:02:07Z</time>
      </trkpt>
      <trkpt lat="45.87418" lon="6.40184">
        <ele>1436</ele>
        <time>2016-08-15T01:04:07Z</time>
      </trkpt>
      <trkpt lat="45.87407" lon="6.40208">
        <ele>1443</ele>
        <time>2016-08-15T01:06:07Z</time>
      </trkpt>
      <trkpt lat="45.87397" lon="6.40214">
        <ele>1446</ele>
        <time>2016-08-15T01:08:07Z</time>
      </trkpt>
      <trkpt lat="45.87389" lon="6.40242">
        <ele>1455</ele>
        <time>2016-08-15T01:10:07Z</time>
      </trkpt>
      <trkpt lat="45.87388" lon="6.40288">
        <ele>1467</ele>
        <time>2016-08-15T01:12:07Z</time>
      </trkpt>
      <trkpt lat="45.87377" lon="6.40301">
        <ele>1472</ele>
        <time>2016-08-15T01:14:07Z</time>
      </trkpt>
      <trkpt lat="45.87276" lon="6.40275">
        <ele>1485</ele>
        <time>2016-08-15T01:16:07Z</time>
      </trkpt>
      <trkpt lat="45.87232" lon="6.40285">
        <ele>1494</ele>
        <time>2016-08-15T01:18:07Z</time>
      </trkpt>
      <trkpt lat="45.87177" lon="6.40282">
        <ele>1502</ele>
        <time>2016-08-15T01:20:07Z</time>
      </trkpt>
      <trkpt lat="45.87174" lon="6.40265">
        <ele>1500</ele>
        <time>2016-08-15T01:22:07Z</time>
      </trkpt>
      <trkpt lat="45.87078" lon="6.40199">
        <ele>1491</ele>
        <time>2016-08-15T01:24:07Z</time>
      </trkpt>
      <trkpt lat="45.87025" lon="6.40202">
        <ele>1495</ele>
        <time>2016-08-15T01:26:07Z</time>
      </trkpt>
      <trkpt lat="45.87" lon="6.4019">
        <ele>1494</ele>
        <time>2016-08-15T01:28:07Z</time>
      </trkpt>
      <trkpt lat="45.86971" lon="6.40188">
        <ele>1482</ele>
        <time>2016-08-15T01:30:07Z</time>
      </trkpt>
      <trkpt lat="45.86949" lon="6.40213">
        <ele>1481</ele>
        <time>2016-08-15T01:32:07Z</time>
      </trkpt>
      <trkpt lat="45.86939" lon="6.40245">
        <ele>1487</ele>
        <time>2016-08-15T01:34:07Z</time>
      </trkpt>
      <trkpt lat="45.86937" lon="6.40274">
        <ele>1493</ele>
        <time>2016-08-15T01:36:07Z</time>
      </trkpt>
      <trkpt lat="45.86889" lon="6.40371">
        <ele>1501</ele>
        <time>2016-08-15T01:38:07Z</time>
      </trkpt>
      <trkpt lat="45.86867" lon="6.40386">
        <ele>1499</ele>
        <time>2016-08-15T01:40:07Z</time>
      </trkpt>
      <trkpt lat="45.86853" lon="6.40416">
        <ele>1505</ele>
        <time>2016-08-15T01:42:07Z</time>
      </trkpt>
      <trkpt lat="45.86819" lon="6.40437">
        <ele>1505</ele>
        <time>2016-08-15T01:44:07Z</time>
      </trkpt>
      <trkpt lat="45.868" lon="6.40434">
        <ele>1500</ele>
        <time>2016-08-15T01:46:07Z</time>
      </trkpt>
      <trkpt lat="45.86779" lon="6.40454">
        <ele>1505</ele>
        <time>2016-08-15T01:48:07Z</time>
      </trkpt>
      <trkpt lat="45.86754" lon="6.40503">
        <ele>1522</ele>
        <time>2016-08-15T01:50:07Z</time>
      </trkpt>
      <trkpt lat="45.86716" lon="6.40511">
        <ele>1525</ele>
        <time>2016-08-15T01:52:07Z</time>
      </trkpt>
      <trkpt lat="45.86703" lon="6.40504">
        <ele>1523</ele>
        <time>2016-08-15T01:54:07Z</time>
      </trkpt>
      <trkpt lat="45.86693" lon="6.40517">
        <ele>1528</ele>
        <time>2016-08-15T01:56:07Z</time>
      </trkpt>
      <trkpt lat="45.86666" lon="6.40527">
        <ele>1533</ele>
        <time>2016-08-15T01:58:07Z</time>
      </trkpt>
      <trkpt lat="45.86651" lon="6.40523">
        <ele>1533</ele>
        <time>2016-08-15T02:00:07Z</time>
      </trkpt>
      <trkpt lat="45.86568" lon="6.40553">
        <ele>1557</ele>
        <time>2016-08-15T02:02:07Z</time>
      </trkpt>
      <trkpt lat="45.8654" lon="6.40529">
        <ele>1554</ele>
        <time>2016-08-15T02:04:07Z</time>
      </trkpt>
      <trkpt lat="45.86542" lon="6.40534">
        <ele>1556</ele>
        <time>2016-08-15T02:06:07Z</time>
      </trkpt>
      <trkpt lat="45.86489" lon="6.40486">
        <ele>1558</ele>
        <time>2016-08-15T02:08:07Z</time>
      </trkpt>
      <trkpt lat="45.86452" lon="6.40469">
        <ele>1571</ele>
        <time>2016-08-15T02:10:07Z</time>
      </trkpt>
      <trkpt lat="45.86456" lon="6.40452">
        <ele>1564</ele>
        <time>2016-08-15T02:12:07Z</time>
      </trkpt>
      <trkpt lat="45.86441" lon="6.40433">
        <ele>1566</ele>
        <time>2016-08-15T02:14:07Z</time>
      </trkpt>
      <trkpt lat="45.86403" lon="6.40434">
        <ele>1575</ele>
        <time>2016-08-15T02:16:07Z</time>
      </trkpt>
      <trkpt lat="45.86387" lon="6.40413">
        <ele>1566</ele>
        <time>2016-08-15T02:18:07Z</time>
      </trkpt>
      <trkpt lat="45.86377" lon="6.40386">
        <ele>1557</ele>
        <time>2016-08-15T02:20:07Z</time>
      </trkpt>
      <trkpt lat="45.86368" lon="6.40379">
        <ele>1555</ele>
        <time>2016-08-15T02:22:07Z</time>
      </trkpt>
      <trkpt lat="45.86356" lon="6.40393">
        <ele>1557</ele>
        <time>2016-08-15T02:24:07Z</time>
      </trkpt>
      <trkpt lat="45.86353" lon="6.40447">
        <ele>1565</ele>
        <time>2016-08-15T02:26:07Z</time>
      </trkpt>
      <trkpt lat="45.86343" lon="6.40503">
        <ele>1569</ele>
        <time>2016-08-15T02:28:07Z</time>
      </trkpt>
      <trkpt lat="45.86313" lon="6.40564">
        <ele>1572</ele>
        <time>2016-08-15T02:30:07Z</time>
      </trkpt>
      <trkpt lat="45.86284" lon="6.40649">
        <ele>1579</ele>
        <time>2016-08-15T02:32:07Z</time>
      </trkpt>
      <trkpt lat="45.86244" lon="6.40716">
        <ele>1573</ele>
        <time>2016-08-15T02:34:07Z</time>
      </trkpt>
      <trkpt lat="45.86221" lon="6.40783">
        <ele>1576</ele>
        <time>2016-08-15T02:36:07Z</time>
      </trkpt>
      <trkpt lat="45.86225" lon="6.40844">
        <ele>1580</ele>
        <time>2016-08-15T02:38:07Z</time>
      </trkpt>
      <trkpt lat="45.86211" lon="6.40895">
        <ele>1571</ele>
        <time>2016-08-15T02:40:07Z</time>
      </trkpt>
      <trkpt lat="45.86211" lon="6.40929">
        <ele>1566</ele>
        <time>2016-08-15T02:42:07Z</time>
      </trkpt>
      <trkpt lat="45.86217" lon="6.40939">
        <ele>1565</ele>
        <time>2016-08-15T02:44:07Z</time>
      </trkpt>
      <trkpt lat="45.86239" lon="6.40946">
        <ele>1566</ele>
        <time>2016-08-15T02:46:07Z</time>
      </trkpt>
      <trkpt lat="45.86263" lon="6.40975">
        <ele>1565</ele>
        <time>2016-08-15T02:48:07Z</time>
      </trkpt>
      <trkpt lat="45.86295" lon="6.40989">
        <ele>1568</ele>
        <time>2016-08-15T02:50:07Z</time>
      </trkpt>
      <trkpt lat="45.86334" lon="6.41056">
        <ele>1564</ele>
        <time>2016-08-15T02:52:07Z</time>
      </trkpt>
      <trkpt lat="45.86403" lon="6.41142">
        <ele>1564</ele>
        <time>2016-08-15T02:54:07Z</time>
      </trkpt>
      <trkpt lat="45.86417" lon="6.41175">
        <ele>1564</ele>
        <time>2016-08-15T02:56:07Z</time>
      </trkpt>
      <trkpt lat="45.86413" lon="6.41215">
        <ele>1560</ele>
        <time>2016-08-15T02:58:07Z</time>
      </trkpt>
      <trkpt lat="45.86416" lon="6.41223">
        <ele>1561</ele>
        <time>2016-08-15T03:00:07Z</time>
      </trkpt>
      <trkpt lat="45.86529" lon="6.41237">
        <ele>1582</ele>
        <time>2016-08-15T03:02:07Z</time>
      </trkpt>
      <trkpt lat="45.86565" lon="6.41202">
        <ele>1589</ele>
        <time>2016-08-15T03:04:07Z</time>
      </trkpt>
      <trkpt lat="45.86575" lon="6.41165">
        <ele>1595</ele>
        <time>2016-08-15T03:06:07Z</time>
      </trkpt>
      <trkpt lat="45.86574" lon="6.41127">
        <ele>1601</ele>
        <time>2016-08-15T03:08:07Z</time>
      </trkpt>
      <trkpt lat="45.86582" lon="6.41063">
        <ele>1614</ele>
        <time>2016-08-15T03:10:07Z</time>
      </trkpt>
      <trkpt lat="45.86615" lon="6.41009">
        <ele>1628</ele>
        <time>2016-08-15T03:12:07Z</time>
      </trkpt>
      <trkpt lat="45.86685" lon="6.40939">
        <ele>1646</ele>
        <time>2016-08-15T03:14:07Z</time>
      </trkpt>
      <trkpt lat="45.86705" lon="6.40889">
        <ele>1646</ele>
        <time>2016-08-15T03:16:07Z</time>
      </trkpt>
      <trkpt lat="45.86712" lon="6.40883">
        <ele>1645</ele>
        <time>2016-08-15T03:18:07Z</time>
      </trkpt>
      <trkpt lat="45.86749" lon="6.40997">
        <ele>1647</ele>
        <time>2016-08-15T03:20:07Z</time>
      </trkpt>
      <trkpt lat="45.86752" lon="6.41024">
        <ele>1644</ele>
        <time>2016-08-15T03:22:07Z</time>
      </trkpt>
      <trkpt lat="45.86776" lon="6.41049">
        <ele>1639</ele>
        <time>2016-08-15T03:24:07Z</time>
      </trkpt>
      <trkpt lat="45.86917" lon="6.41056">
        <ele>1633</ele>
        <time>2016-08-15T03:26:07Z</time>
      </trkpt>
      <trkpt lat="45.86953" lon="6.4101">
        <ele>1629</ele>
        <time>2016-08-15T03:28:07Z</time>
      </trkpt>
      <trkpt lat="45.8701" lon="6.41015">
        <ele>1623</ele>
        <time>2016-08-15T03:30:07Z</time>
      </trkpt>
      <trkpt lat="45.87036" lon="6.40992">
        <ele>1622</ele>
        <time>2016-08-15T03:32:07Z</time>
      </trkpt>
      <trkpt lat="45.87059" lon="6.40982">
        <ele>1621</ele>
        <time>2016-08-15T03:34:07Z</time>
      </trkpt>
      <trkpt lat="45.87076" lon="6.40951">
        <ele>1618</ele>
        <time>2016-08-15T03:36:07Z</time>
      </trkpt>
      <trkpt lat="45.87085" lon="6.4091">
        <ele>1613</ele>
        <time>2016-08-15T03:38:07Z</time>
      </trkpt>
      <trkpt lat="45.87099" lon="6.40879">
        <ele>1606</ele>
        <time>2016-08-15T03:40:07Z</time>
      </trkpt>
      <trkpt lat="45.87118" lon="6.40864">
        <ele>1603</ele>
        <time>2016-08-15T03:42:07Z</time>
      </trkpt>
      <trkpt lat="45.87128" lon="6.40846">
        <ele>1600</ele>
        <time>2016-08-15T03:44:07Z</time>
      </trkpt>
      <trkpt lat="45.87132" lon="6.40797">
        <ele>1593</ele>
        <time>2016-08-15T03:46:07Z</time>
      </trkpt>
      <trkpt lat="45.87147" lon="6.40776">
        <ele>1590</ele>
        <time>2016-08-15T03:48:07Z</time>
      </trkpt>
      <trkpt lat="45.87181" lon="6.40752">
        <ele>1581</ele>
        <time>2016-08-15T03:50:07Z</time>
      </trkpt>
      <trkpt lat="45.87233" lon="6.40735">
        <ele>1567</ele>
        <time>2016-08-15T03:52:07Z</time>
      </trkpt>
      <trkpt lat="45.8728" lon="6.40739">
        <ele>1561</ele>
        <time>2016-08-15T03:54:07Z</time>
      </trkpt>
      <trkpt lat="45.87365" lon="6.4072">
        <ele>1546</ele>
        <time>2016-08-15T03:56:07Z</time>
      </trkpt>
      <trkpt lat="45.87415" lon="6.40732">
        <ele>1537</ele>
        <time>2016-08-15T03:58:07Z</time>
      </trkpt>
      <trkpt lat="45.87441" lon="6.4073">
        <ele>1532</ele>
        <time>2016-08-15T04:00:07Z</time>
      </trkpt>
      <trkpt lat="45.87503" lon="6.40756">
        <ele>1528</ele>
        <time>2016-08-15T04:02:07Z</time>
      </trkpt>
      <trkpt lat="45.87551" lon="6.40766">
        <ele>1518</ele>
        <time>2016-08-15T04:04:07Z</time>
      </trkpt>
      <trkpt lat="45.87581" lon="6.40751">
        <ele>1507</ele>
        <time>2016-08-15T04:06:07Z</time>
      </trkpt>
      <trkpt lat="45.87598" lon="6.40733">
        <ele>1502</ele>
        <time>2016-08-15T04:08:07Z</time>
      </trkpt>
      <trkpt lat="45.87604" lon="6.40715">
        <ele>1498</ele>
        <time>2016-08-15T04:10:07Z</time>
      </trkpt>
      <trkpt lat="45.87603" lon="6.40672">
        <ele>1492</ele>
        <time>2016-08-15T04:12:07Z</time>
      </trkpt>
      <trkpt lat="45.87616" lon="6.40602">
        <ele>1480</ele>
        <time>2016-08-15T04:14:07Z</time>
      </trkpt>
      <trkpt lat="45.87621" lon="6.40526">
        <ele>1472</ele>
        <time>2016-08-15T04:16:07Z</time>
      </trkpt>
      <trkpt lat="45.8763" lon="6.40528">
        <ele>1472</ele>
        <time>2016-08-15T04:18:07Z</time>
      </trkpt>
      <trkpt lat="45.87651" lon="6.40591">
        <ele>1474</ele>
        <time>2016-08-15T04:20:07Z</time>
      </trkpt>
      <trkpt lat="45.87682" lon="6.40609">
        <ele>1473</ele>
        <time>2016-08-15T04:22:07Z</time>
      </trkpt>
      <trkpt lat="45.8772" lon="6.40605">
        <ele>1469</ele>
        <time>2016-08-15T04:24:07Z</time>
      </trkpt>
      <trkpt lat="45.87734" lon="6.40614">
        <ele>1468</ele>
        <time>2016-08-15T04:26:07Z</time>
      </trkpt>
      <trkpt lat="45.87744" lon="6.40612">
        <ele>1467</ele>
        <time>2016-08-15T04:28:07Z</time>
      </trkpt>
      <trkpt lat="45.87759" lon="6.40586">
        <ele>1465</ele>
        <time>2016-08-15T04:30:07Z</time>
      </trkpt>
      <trkpt lat="45.87729" lon="6.40535">
        <ele>1466</ele>
        <time>2016-08-15T04:32:07Z</time>
      </trkpt>
      <trkpt lat="45.8772" lon="6.40456">
        <ele>1466</ele>
        <time>2016-08-15T04:34:07Z</time>
      </trkpt>
      <trkpt lat="45.87746" lon="6.40413">
        <ele>1465</ele>
        <time>2016-08-15T04:36:07Z</time>
      </trkpt>
      <trkpt lat="45.87766" lon="6.40362">
        <ele>1473</ele>
        <time>2016-08-15T04:38:07Z</time>
      </trkpt>
      <trkpt lat="45.87798" lon="6.40384">
        <ele>1476</ele>
        <time>2016-08-15T04:40:07Z</time>
      </trkpt>
    </trkseg>
  </trk>
</gpx>